sensor_id;sensor_type;location;lat;lon;timestamp;temperature;humidity
63371;DHT22;49504;48.336;14.472;2023-06-26T00:03:16;26.90;55.90
63371;DHT22;49504;48.336;14.472;2023-06-26T00:06:38;26.90;55.80
63371;DHT22;49504;48.336;14.472;2023-06-26T00:09:59;26.90;55.80
63371;DHT22;49504;48.336;14.472;2023-06-26T00:13:20;26.90;55.80
63371;DHT22;49504;48.336;14.472;2023-06-26T00:16:43;26.90;55.80
63371;DHT22;49504;48.336;14.472;2023-06-26T00:20:05;26.90;55.80
63371;DHT22;49504;48.336;14.472;2023-06-26T00:23:27;26.90;55.90
63371;DHT22;49504;48.336;14.472;2023-06-26T00:26:48;26.90;55.80
63371;DHT22;49504;48.336;14.472;2023-06-26T00:30:10;26.90;55.90
63371;DHT22;49504;48.336;14.472;2023-06-26T00:33:33;26.90;55.90
63371;DHT22;49504;48.336;14.472;2023-06-26T00:36:54;26.90;55.80
63371;DHT22;49504;48.336;14.472;2023-06-26T00:42:51;26.90;55.30
63371;DHT22;49504;48.336;14.472;2023-06-26T00:46:13;26.90;55.80
63371;DHT22;49504;48.336;14.472;2023-06-26T00:49:35;26.90;55.80
63371;DHT22;49504;48.336;14.472;2023-06-26T00:52:57;26.90;55.80
63371;DHT22;49504;48.336;14.472;2023-06-26T00:56:19;26.90;56.50
63371;DHT22;49504;48.336;14.472;2023-06-26T00:59:42;26.90;55.80
63371;DHT22;49504;48.336;14.472;2023-06-26T01:03:03;26.90;55.80
63371;DHT22;49504;48.336;14.472;2023-06-26T01:08:08;26.90;55.20
63371;DHT22;49504;48.336;14.472;2023-06-26T01:11:29;26.90;56.50
63371;DHT22;49504;48.336;14.472;2023-06-26T01:14:52;26.90;55.80
63371;DHT22;49504;48.336;14.472;2023-06-26T01:18:13;26.90;55.80
63371;DHT22;49504;48.336;14.472;2023-06-26T01:21:35;26.90;55.90
63371;DHT22;49504;48.336;14.472;2023-06-26T01:25:10;26.90;55.90
63371;DHT22;49504;48.336;14.472;2023-06-26T01:28:37;26.90;55.80
63371;DHT22;49504;48.336;14.472;2023-06-26T01:32:00;26.90;55.90
63371;DHT22;49504;48.336;14.472;2023-06-26T01:35:23;26.90;55.90
63371;DHT22;49504;48.336;14.472;2023-06-26T01:38:44;26.90;55.90
63371;DHT22;49504;48.336;14.472;2023-06-26T01:42:06;26.90;56.10
63371;DHT22;49504;48.336;14.472;2023-06-26T01:45:32;26.90;55.90
63371;DHT22;49504;48.336;14.472;2023-06-26T01:48:59;26.90;55.90
63371;DHT22;49504;48.336;14.472;2023-06-26T01:52:27;26.90;55.90
63371;DHT22;49504;48.336;14.472;2023-06-26T01:55:54;26.90;55.90
63371;DHT22;49504;48.336;14.472;2023-06-26T01:59:19;26.90;55.90
63371;DHT22;49504;48.336;14.472;2023-06-26T02:02:42;26.80;55.80
63371;DHT22;49504;48.336;14.472;2023-06-26T02:06:03;26.80;55.80
63371;DHT22;49504;48.336;14.472;2023-06-26T02:09:24;26.80;55.80
63371;DHT22;49504;48.336;14.472;2023-06-26T02:12:46;26.80;55.80
63371;DHT22;49504;48.336;14.472;2023-06-26T02:17:40;26.80;55.20
63371;DHT22;49504;48.336;14.472;2023-06-26T02:21:03;26.80;55.90
63371;DHT22;49504;48.336;14.472;2023-06-26T02:24:24;26.80;55.90
63371;DHT22;49504;48.336;14.472;2023-06-26T02:27:45;26.80;55.90
63371;DHT22;49504;48.336;14.472;2023-06-26T02:31:06;26.80;56.00
63371;DHT22;49504;48.336;14.472;2023-06-26T02:34:29;26.80;56.00
63371;DHT22;49504;48.336;14.472;2023-06-26T02:37:50;26.80;56.00
63371;DHT22;49504;48.336;14.472;2023-06-26T02:41:11;26.80;56.00
63371;DHT22;49504;48.336;14.472;2023-06-26T02:44:33;26.80;56.10
63371;DHT22;49504;48.336;14.472;2023-06-26T02:47:54;26.80;56.10
63371;DHT22;49504;48.336;14.472;2023-06-26T02:51:17;26.80;56.10
63371;DHT22;49504;48.336;14.472;2023-06-26T02:54:40;26.80;56.10
63371;DHT22;49504;48.336;14.472;2023-06-26T02:58:01;26.80;56.10
63371;DHT22;49504;48.336;14.472;2023-06-26T03:01:23;26.80;56.20
63371;DHT22;49504;48.336;14.472;2023-06-26T03:04:44;26.80;56.20
63371;DHT22;49504;48.336;14.472;2023-06-26T03:08:09;26.80;56.20
63371;DHT22;49504;48.336;14.472;2023-06-26T03:11:30;26.80;56.10
63371;DHT22;49504;48.336;14.472;2023-06-26T03:14:51;26.80;56.10
63371;DHT22;49504;48.336;14.472;2023-06-26T03:18:12;26.80;56.20
63371;DHT22;49504;48.336;14.472;2023-06-26T03:21:33;26.80;56.10
63371;DHT22;49504;48.336;14.472;2023-06-26T03:26:50;26.80;55.60
63371;DHT22;49504;48.336;14.472;2023-06-26T03:30:13;26.80;56.10
63371;DHT22;49504;48.336;14.472;2023-06-26T03:33:37;26.80;54.70
63371;DHT22;49504;48.336;14.472;2023-06-26T03:36:58;26.80;53.50
63371;DHT22;49504;48.336;14.472;2023-06-26T03:40:19;26.80;52.50
63371;DHT22;49504;48.336;14.472;2023-06-26T03:43:42;26.80;52.00
63371;DHT22;49504;48.336;14.472;2023-06-26T03:47:15;26.80;51.50
63371;DHT22;49504;48.336;14.472;2023-06-26T03:50:37;26.80;51.00
63371;DHT22;49504;48.336;14.472;2023-06-26T03:53:58;26.70;50.60
63371;DHT22;49504;48.336;14.472;2023-06-26T03:57:22;26.70;50.20
63371;DHT22;49504;48.336;14.472;2023-06-26T04:00:45;26.70;50.10
63371;DHT22;49504;48.336;14.472;2023-06-26T04:04:07;26.70;49.90
63371;DHT22;49504;48.336;14.472;2023-06-26T04:07:29;26.70;49.20
63371;DHT22;49504;48.336;14.472;2023-06-26T04:10:51;26.60;48.70
63371;DHT22;49504;48.336;14.472;2023-06-26T04:14:13;26.60;48.30
63371;DHT22;49504;48.336;14.472;2023-06-26T04:17:36;26.50;47.90
63371;DHT22;49504;48.336;14.472;2023-06-26T04:21:09;26.50;48.00
63371;DHT22;49504;48.336;14.472;2023-06-26T04:24:30;26.40;48.20
63371;DHT22;49504;48.336;14.472;2023-06-26T04:27:51;26.40;47.20
63371;DHT22;49504;48.336;14.472;2023-06-26T04:31:13;26.40;47.40
63371;DHT22;49504;48.336;14.472;2023-06-26T04:34:35;26.30;47.60
63371;DHT22;49504;48.336;14.472;2023-06-26T04:37:56;26.30;47.70
63371;DHT22;49504;48.336;14.472;2023-06-26T04:41:17;26.30;47.70
63371;DHT22;49504;48.336;14.472;2023-06-26T04:44:38;26.20;47.20
63371;DHT22;49504;48.336;14.472;2023-06-26T04:48:00;26.20;47.50
63371;DHT22;49504;48.336;14.472;2023-06-26T04:51:22;26.20;47.50
63371;DHT22;49504;48.336;14.472;2023-06-26T04:54:43;26.10;47.30
63371;DHT22;49504;48.336;14.472;2023-06-26T04:58:04;26.10;47.10
63371;DHT22;49504;48.336;14.472;2023-06-26T05:01:25;26.10;46.90
63371;DHT22;49504;48.336;14.472;2023-06-26T05:04:46;26.10;47.60
63371;DHT22;49504;48.336;14.472;2023-06-26T05:08:16;26.10;47.40
63371;DHT22;49504;48.336;14.472;2023-06-26T05:11:38;26.10;47.90
63371;DHT22;49504;48.336;14.472;2023-06-26T05:14:59;26.00;47.40
63371;DHT22;49504;48.336;14.472;2023-06-26T05:18:20;26.00;47.40
63371;DHT22;49504;48.336;14.472;2023-06-26T05:21:42;26.00;47.50
63371;DHT22;49504;48.336;14.472;2023-06-26T05:25:05;26.00;47.60
63371;DHT22;49504;48.336;14.472;2023-06-26T05:28:30;26.00;47.80
63371;DHT22;49504;48.336;14.472;2023-06-26T05:31:53;26.00;47.70
63371;DHT22;49504;48.336;14.472;2023-06-26T05:35:17;26.00;47.90
63371;DHT22;49504;48.336;14.472;2023-06-26T05:38:39;26.00;48.10
63371;DHT22;49504;48.336;14.472;2023-06-26T05:42:03;26.00;48.20
63371;DHT22;49504;48.336;14.472;2023-06-26T05:45:25;26.00;48.30
63371;DHT22;49504;48.336;14.472;2023-06-26T05:48:46;26.00;48.30
63371;DHT22;49504;48.336;14.472;2023-06-26T05:52:09;26.00;48.40
63371;DHT22;49504;48.336;14.472;2023-06-26T05:55:31;26.00;48.50
63371;DHT22;49504;48.336;14.472;2023-06-26T05:58:54;26.10;48.60
63371;DHT22;49504;48.336;14.472;2023-06-26T06:02:16;26.10;48.90
63371;DHT22;49504;48.336;14.472;2023-06-26T06:05:37;26.10;48.90
63371;DHT22;49504;48.336;14.472;2023-06-26T06:08:58;26.10;48.90
63371;DHT22;49504;48.336;14.472;2023-06-26T06:12:19;26.10;49.00
63371;DHT22;49504;48.336;14.472;2023-06-26T06:15:42;26.10;49.10
63371;DHT22;49504;48.336;14.472;2023-06-26T06:19:03;26.10;49.20
63371;DHT22;49504;48.336;14.472;2023-06-26T06:22:24;26.10;49.30
63371;DHT22;49504;48.336;14.472;2023-06-26T06:25:45;26.10;49.20
63371;DHT22;49504;48.336;14.472;2023-06-26T06:29:06;26.10;49.40
63371;DHT22;49504;48.336;14.472;2023-06-26T06:32:29;26.10;49.60
63371;DHT22;49504;48.336;14.472;2023-06-26T06:35:50;26.10;49.60
63371;DHT22;49504;48.336;14.472;2023-06-26T06:39:11;26.20;49.70
63371;DHT22;49504;48.336;14.472;2023-06-26T06:42:32;26.20;49.90
63371;DHT22;49504;48.336;14.472;2023-06-26T06:45:53;26.20;49.90
63371;DHT22;49504;48.336;14.472;2023-06-26T06:49:15;26.20;50.10
63371;DHT22;49504;48.336;14.472;2023-06-26T06:52:38;26.20;50.20
63371;DHT22;49504;48.336;14.472;2023-06-26T06:55:59;26.20;50.30
63371;DHT22;49504;48.336;14.472;2023-06-26T06:59:20;26.20;50.30
63371;DHT22;49504;48.336;14.472;2023-06-26T07:02:43;26.20;50.40
63371;DHT22;49504;48.336;14.472;2023-06-26T07:06:06;26.20;50.30
63371;DHT22;49504;48.336;14.472;2023-06-26T07:09:27;26.20;50.30
63371;DHT22;49504;48.336;14.472;2023-06-26T07:12:48;26.20;50.30
63371;DHT22;49504;48.336;14.472;2023-06-26T07:16:10;26.30;50.10
63371;DHT22;49504;48.336;14.472;2023-06-26T07:19:31;26.20;49.90
63371;DHT22;49504;48.336;14.472;2023-06-26T07:22:53;26.20;49.80
63371;DHT22;49504;48.336;14.472;2023-06-26T07:26:14;26.20;49.60
63371;DHT22;49504;48.336;14.472;2023-06-26T07:29:35;26.20;49.30
63371;DHT22;49504;48.336;14.472;2023-06-26T07:32:57;26.20;49.20
63371;DHT22;49504;48.336;14.472;2023-06-26T07:36:18;26.20;49.50
63371;DHT22;49504;48.336;14.472;2023-06-26T07:39:40;26.20;49.60
63371;DHT22;49504;48.336;14.472;2023-06-26T07:43:01;26.20;49.70
63371;DHT22;49504;48.336;14.472;2023-06-26T07:46:22;26.20;50.00
63371;DHT22;49504;48.336;14.472;2023-06-26T07:49:43;26.20;50.20
63371;DHT22;49504;48.336;14.472;2023-06-26T07:53:05;26.30;50.40
63371;DHT22;49504;48.336;14.472;2023-06-26T07:56:27;26.30;50.40
63371;DHT22;49504;48.336;14.472;2023-06-26T07:59:49;26.30;50.60
63371;DHT22;49504;48.336;14.472;2023-06-26T08:03:11;26.20;50.60
63371;DHT22;49504;48.336;14.472;2023-06-26T08:06:32;26.20;50.70
63371;DHT22;49504;48.336;14.472;2023-06-26T08:09:53;26.30;50.80
63371;DHT22;49504;48.336;14.472;2023-06-26T08:13:15;26.30;50.90
63371;DHT22;49504;48.336;14.472;2023-06-26T08:16:36;26.30;50.90
63371;DHT22;49504;48.336;14.472;2023-06-26T08:22:09;26.30;50.30
63371;DHT22;49504;48.336;14.472;2023-06-26T08:25:30;26.30;51.10
63371;DHT22;49504;48.336;14.472;2023-06-26T08:28:51;26.30;51.20
63371;DHT22;49504;48.336;14.472;2023-06-26T08:32:12;26.30;51.20
63371;DHT22;49504;48.336;14.472;2023-06-26T08:35:33;26.30;51.30
63371;DHT22;49504;48.336;14.472;2023-06-26T08:38:56;26.30;51.30
63371;DHT22;49504;48.336;14.472;2023-06-26T08:42:17;26.30;51.40
63371;DHT22;49504;48.336;14.472;2023-06-26T08:45:38;26.30;51.40
63371;DHT22;49504;48.336;14.472;2023-06-26T08:49:02;26.30;51.40
63371;DHT22;49504;48.336;14.472;2023-06-26T08:52:30;26.30;51.40
63371;DHT22;49504;48.336;14.472;2023-06-26T08:55:53;26.30;51.50
63371;DHT22;49504;48.336;14.472;2023-06-26T08:59:15;26.30;51.40
63371;DHT22;49504;48.336;14.472;2023-06-26T09:02:37;26.30;51.50
63371;DHT22;49504;48.336;14.472;2023-06-26T09:05:59;26.30;51.50
63371;DHT22;49504;48.336;14.472;2023-06-26T09:09:20;26.30;51.50
63371;DHT22;49504;48.336;14.472;2023-06-26T09:12:46;26.30;51.50
63371;DHT22;49504;48.336;14.472;2023-06-26T09:16:07;26.30;51.60
63371;DHT22;49504;48.336;14.472;2023-06-26T09:19:30;26.30;51.80
63371;DHT22;49504;48.336;14.472;2023-06-26T09:22:51;26.40;51.70
63371;DHT22;49504;48.336;14.472;2023-06-26T09:26:14;26.40;51.80
63371;DHT22;49504;48.336;14.472;2023-06-26T09:29:37;26.40;51.60
63371;DHT22;49504;48.336;14.472;2023-06-26T09:33:13;26.40;51.60
63371;DHT22;49504;48.336;14.472;2023-06-26T09:36:35;26.40;51.70
63371;DHT22;49504;48.336;14.472;2023-06-26T09:39:56;26.40;51.80
63371;DHT22;49504;48.336;14.472;2023-06-26T09:43:18;26.40;51.70
63371;DHT22;49504;48.336;14.472;2023-06-26T09:46:44;26.40;51.90
63371;DHT22;49504;48.336;14.472;2023-06-26T09:50:06;26.40;51.90
63371;DHT22;49504;48.336;14.472;2023-06-26T09:53:42;26.40;51.90
63371;DHT22;49504;48.336;14.472;2023-06-26T09:57:07;26.40;51.90
63371;DHT22;49504;48.336;14.472;2023-06-26T10:00:29;26.40;51.90
63371;DHT22;49504;48.336;14.472;2023-06-26T10:03:52;26.50;52.10
63371;DHT22;49504;48.336;14.472;2023-06-26T10:07:13;26.50;52.10
63371;DHT22;49504;48.336;14.472;2023-06-26T10:10:37;26.40;52.10
63371;DHT22;49504;48.336;14.472;2023-06-26T10:13:59;26.50;52.20
63371;DHT22;49504;48.336;14.472;2023-06-26T10:17:22;26.40;52.10
63371;DHT22;49504;48.336;14.472;2023-06-26T10:20:48;26.50;52.20
63371;DHT22;49504;48.336;14.472;2023-06-26T10:24:12;26.50;52.30
63371;DHT22;49504;48.336;14.472;2023-06-26T10:27:36;26.50;52.40
63371;DHT22;49504;48.336;14.472;2023-06-26T10:31:01;26.50;52.50
63371;DHT22;49504;48.336;14.472;2023-06-26T10:34:27;26.50;52.60
63371;DHT22;49504;48.336;14.472;2023-06-26T10:37:51;26.50;52.60
63371;DHT22;49504;48.336;14.472;2023-06-26T10:41:20;26.50;52.60
63371;DHT22;49504;48.336;14.472;2023-06-26T10:44:44;26.50;52.60
63371;DHT22;49504;48.336;14.472;2023-06-26T10:48:19;26.50;52.70
63371;DHT22;49504;48.336;14.472;2023-06-26T10:51:46;26.50;52.70
63371;DHT22;49504;48.336;14.472;2023-06-26T10:55:27;26.50;52.80
63371;DHT22;49504;48.336;14.472;2023-06-26T10:59:13;26.50;52.70
63371;DHT22;49504;48.336;14.472;2023-06-26T11:02:53;26.50;52.70
63371;DHT22;49504;48.336;14.472;2023-06-26T11:06:18;26.50;52.70
63371;DHT22;49504;48.336;14.472;2023-06-26T11:09:56;26.50;52.90
63371;DHT22;49504;48.336;14.472;2023-06-26T11:13:20;26.60;52.90
63371;DHT22;49504;48.336;14.472;2023-06-26T11:16:42;26.50;53.00
63371;DHT22;49504;48.336;14.472;2023-06-26T11:20:05;26.60;53.20
63371;DHT22;49504;48.336;14.472;2023-06-26T11:23:27;26.50;53.10
63371;DHT22;49504;48.336;14.472;2023-06-26T11:26:49;26.50;53.20
63371;DHT22;49504;48.336;14.472;2023-06-26T11:30:23;26.60;53.30
63371;DHT22;49504;48.336;14.472;2023-06-26T11:33:46;26.60;53.20
63371;DHT22;49504;48.336;14.472;2023-06-26T11:37:07;26.60;53.30
63371;DHT22;49504;48.336;14.472;2023-06-26T11:40:28;26.60;53.20
63371;DHT22;49504;48.336;14.472;2023-06-26T11:43:50;26.60;53.30
63371;DHT22;49504;48.336;14.472;2023-06-26T11:47:18;26.60;53.40
63371;DHT22;49504;48.336;14.472;2023-06-26T11:50:40;26.60;53.30
63371;DHT22;49504;48.336;14.472;2023-06-26T11:54:02;26.70;53.30
63371;DHT22;49504;48.336;14.472;2023-06-26T11:57:24;26.70;53.20
63371;DHT22;49504;48.336;14.472;2023-06-26T12:00:47;26.80;53.20
63371;DHT22;49504;48.336;14.472;2023-06-26T12:04:12;26.80;53.10
63371;DHT22;49504;48.336;14.472;2023-06-26T12:07:35;26.90;53.10
63371;DHT22;49504;48.336;14.472;2023-06-26T12:10:56;26.90;53.00
63371;DHT22;49504;48.336;14.472;2023-06-26T12:14:19;26.90;53.00
63371;DHT22;49504;48.336;14.472;2023-06-26T12:17:41;27.00;53.00
63371;DHT22;49504;48.336;14.472;2023-06-26T12:21:03;27.00;53.00
63371;DHT22;49504;48.336;14.472;2023-06-26T12:24:24;27.10;53.20
63371;DHT22;49504;48.336;14.472;2023-06-26T12:27:45;27.10;53.00
63371;DHT22;49504;48.336;14.472;2023-06-26T12:31:14;27.10;53.00
63371;DHT22;49504;48.336;14.472;2023-06-26T12:34:36;27.10;53.40
63371;DHT22;49504;48.336;14.472;2023-06-26T12:38:00;27.10;53.50
63371;DHT22;49504;48.336;14.472;2023-06-26T12:41:24;27.20;53.50
63371;DHT22;49504;48.336;14.472;2023-06-26T12:44:46;27.20;53.30
63371;DHT22;49504;48.336;14.472;2023-06-26T12:48:10;27.20;53.20
63371;DHT22;49504;48.336;14.472;2023-06-26T12:54:22;27.10;52.50
63371;DHT22;49504;48.336;14.472;2023-06-26T12:57:44;27.20;53.30
63371;DHT22;49504;48.336;14.472;2023-06-26T13:01:06;27.20;53.30
63371;DHT22;49504;48.336;14.472;2023-06-26T13:04:28;27.10;53.10
63371;DHT22;49504;48.336;14.472;2023-06-26T13:07:49;27.20;53.50
63371;DHT22;49504;48.336;14.472;2023-06-26T13:11:12;27.10;53.40
63371;DHT22;49504;48.336;14.472;2023-06-26T13:14:33;27.10;53.30
63371;DHT22;49504;48.336;14.472;2023-06-26T13:17:54;27.10;53.40
63371;DHT22;49504;48.336;14.472;2023-06-26T13:21:17;27.10;53.30
63371;DHT22;49504;48.336;14.472;2023-06-26T13:24:38;27.10;53.70
63371;DHT22;49504;48.336;14.472;2023-06-26T13:28:01;27.10;53.50
63371;DHT22;49504;48.336;14.472;2023-06-26T13:31:23;27.10;53.70
63371;DHT22;49504;48.336;14.472;2023-06-26T13:34:44;27.00;53.30
63371;DHT22;49504;48.336;14.472;2023-06-26T13:38:06;27.00;53.30
63371;DHT22;49504;48.336;14.472;2023-06-26T13:41:28;27.00;53.60
63371;DHT22;49504;48.336;14.472;2023-06-26T13:44:50;27.00;53.70
63371;DHT22;49504;48.336;14.472;2023-06-26T13:48:12;27.00;53.50
63371;DHT22;49504;48.336;14.472;2023-06-26T13:51:34;27.00;53.50
63371;DHT22;49504;48.336;14.472;2023-06-26T13:54:55;27.00;53.50
63371;DHT22;49504;48.336;14.472;2023-06-26T13:58:16;27.00;53.30
63371;DHT22;49504;48.336;14.472;2023-06-26T14:01:39;27.00;53.30
63371;DHT22;49504;48.336;14.472;2023-06-26T14:05:01;27.00;53.40
63371;DHT22;49504;48.336;14.472;2023-06-26T14:08:23;27.00;53.60
63371;DHT22;49504;48.336;14.472;2023-06-26T14:11:44;27.00;53.40
63371;DHT22;49504;48.336;14.472;2023-06-26T14:15:07;27.00;53.30
63371;DHT22;49504;48.336;14.472;2023-06-26T14:18:31;27.00;53.50
63371;DHT22;49504;48.336;14.472;2023-06-26T14:21:52;27.00;53.50
63371;DHT22;49504;48.336;14.472;2023-06-26T14:25:14;27.00;53.50
63371;DHT22;49504;48.336;14.472;2023-06-26T14:28:35;27.00;53.50
63371;DHT22;49504;48.336;14.472;2023-06-26T14:31:56;27.00;53.50
63371;DHT22;49504;48.336;14.472;2023-06-26T14:35:19;27.00;53.40
63371;DHT22;49504;48.336;14.472;2023-06-26T14:38:40;27.10;53.70
63371;DHT22;49504;48.336;14.472;2023-06-26T14:42:03;27.00;53.60
63371;DHT22;49504;48.336;14.472;2023-06-26T14:45:24;27.00;53.50
63371;DHT22;49504;48.336;14.472;2023-06-26T14:48:46;27.00;53.40
63371;DHT22;49504;48.336;14.472;2023-06-26T14:52:09;27.00;53.40
63371;DHT22;49504;48.336;14.472;2023-06-26T14:55:30;27.10;53.60
63371;DHT22;49504;48.336;14.472;2023-06-26T14:58:52;27.00;53.40
63371;DHT22;49504;48.336;14.472;2023-06-26T15:02:14;27.10;53.60
63371;DHT22;49504;48.336;14.472;2023-06-26T15:05:36;27.10;53.40
63371;DHT22;49504;48.336;14.472;2023-06-26T15:09:00;27.10;53.70
63371;DHT22;49504;48.336;14.472;2023-06-26T15:12:21;27.10;53.60
63371;DHT22;49504;48.336;14.472;2023-06-26T15:15:43;27.10;53.70
63371;DHT22;49504;48.336;14.472;2023-06-26T15:19:04;27.10;53.70
63371;DHT22;49504;48.336;14.472;2023-06-26T15:22:26;27.10;53.70
63371;DHT22;49504;48.336;14.472;2023-06-26T15:27:01;27.10;53.00
63371;DHT22;49504;48.336;14.472;2023-06-26T15:30:22;27.10;53.60
63371;DHT22;49504;48.336;14.472;2023-06-26T15:33:44;27.00;53.60
63371;DHT22;49504;48.336;14.472;2023-06-26T15:37:08;27.10;53.60
63371;DHT22;49504;48.336;14.472;2023-06-26T15:40:30;27.10;53.50
63371;DHT22;49504;48.336;14.472;2023-06-26T15:43:53;27.00;53.40
63371;DHT22;49504;48.336;14.472;2023-06-26T15:47:15;27.10;53.50
63371;DHT22;49504;48.336;14.472;2023-06-26T15:50:36;27.10;53.50
63371;DHT22;49504;48.336;14.472;2023-06-26T15:53:57;27.10;53.40
63371;DHT22;49504;48.336;14.472;2023-06-26T15:57:18;27.10;53.40
63371;DHT22;49504;48.336;14.472;2023-06-26T16:00:40;27.10;53.40
63371;DHT22;49504;48.336;14.472;2023-06-26T16:04:01;27.10;53.40
63371;DHT22;49504;48.336;14.472;2023-06-26T16:07:23;27.10;53.40
63371;DHT22;49504;48.336;14.472;2023-06-26T16:10:44;27.10;53.50
63371;DHT22;49504;48.336;14.472;2023-06-26T16:14:05;27.10;53.60
63371;DHT22;49504;48.336;14.472;2023-06-26T16:17:28;27.10;53.50
63371;DHT22;49504;48.336;14.472;2023-06-26T16:20:49;27.10;54.10
63371;DHT22;49504;48.336;14.472;2023-06-26T16:24:10;27.10;53.70
63371;DHT22;49504;48.336;14.472;2023-06-26T16:27:31;27.10;53.60
63371;DHT22;49504;48.336;14.472;2023-06-26T16:30:52;27.10;53.60
63371;DHT22;49504;48.336;14.472;2023-06-26T16:34:15;27.10;53.70
63371;DHT22;49504;48.336;14.472;2023-06-26T16:37:36;27.10;54.00
63371;DHT22;49504;48.336;14.472;2023-06-26T16:40:57;27.10;54.30
63371;DHT22;49504;48.336;14.472;2023-06-26T16:44:18;27.10;54.00
63371;DHT22;49504;48.336;14.472;2023-06-26T16:47:39;27.20;54.00
63371;DHT22;49504;48.336;14.472;2023-06-26T16:51:02;27.20;53.90
63371;DHT22;49504;48.336;14.472;2023-06-26T16:54:23;27.20;53.90
63371;DHT22;49504;48.336;14.472;2023-06-26T16:57:44;27.20;53.90
63371;DHT22;49504;48.336;14.472;2023-06-26T17:01:05;27.20;54.00
63371;DHT22;49504;48.336;14.472;2023-06-26T17:04:27;27.20;54.40
63371;DHT22;49504;48.336;14.472;2023-06-26T17:07:50;27.20;54.10
63371;DHT22;49504;48.336;14.472;2023-06-26T17:11:11;27.20;54.10
63371;DHT22;49504;48.336;14.472;2023-06-26T17:14:33;27.20;54.00
63371;DHT22;49504;48.336;14.472;2023-06-26T17:17:54;27.20;53.90
63371;DHT22;49504;48.336;14.472;2023-06-26T17:21:15;27.20;54.60
63371;DHT22;49504;48.336;14.472;2023-06-26T17:24:37;27.20;53.90
63371;DHT22;49504;48.336;14.472;2023-06-26T17:27:58;27.20;54.20
63371;DHT22;49504;48.336;14.472;2023-06-26T17:31:20;27.20;54.30
63371;DHT22;49504;48.336;14.472;2023-06-26T17:34:41;27.20;54.10
63371;DHT22;49504;48.336;14.472;2023-06-26T17:38:02;27.20;53.90
63371;DHT22;49504;48.336;14.472;2023-06-26T17:41:24;27.20;53.90
63371;DHT22;49504;48.336;14.472;2023-06-26T17:44:45;27.20;54.30
63371;DHT22;49504;48.336;14.472;2023-06-26T17:48:07;27.20;54.20
63371;DHT22;49504;48.336;14.472;2023-06-26T17:51:28;27.20;54.10
63371;DHT22;49504;48.336;14.472;2023-06-26T17:54:49;27.20;54.00
63371;DHT22;49504;48.336;14.472;2023-06-26T17:58:12;27.20;54.00
63371;DHT22;49504;48.336;14.472;2023-06-26T18:01:33;27.20;54.00
63371;DHT22;49504;48.336;14.472;2023-06-26T18:04:54;27.20;54.00
63371;DHT22;49504;48.336;14.472;2023-06-26T18:08:15;27.20;53.90
63371;DHT22;49504;48.336;14.472;2023-06-26T18:11:36;27.20;54.20
63371;DHT22;49504;48.336;14.472;2023-06-26T18:14:59;27.20;54.20
63371;DHT22;49504;48.336;14.472;2023-06-26T18:18:20;27.20;54.10
63371;DHT22;49504;48.336;14.472;2023-06-26T18:21:41;27.20;54.70
63371;DHT22;49504;48.336;14.472;2023-06-26T18:25:02;27.20;54.00
63371;DHT22;49504;48.336;14.472;2023-06-26T18:28:24;27.20;54.20
63371;DHT22;49504;48.336;14.472;2023-06-26T18:31:46;27.20;54.20
63371;DHT22;49504;48.336;14.472;2023-06-26T18:35:08;27.20;54.10
63371;DHT22;49504;48.336;14.472;2023-06-26T18:38:29;27.20;54.10
63371;DHT22;49504;48.336;14.472;2023-06-26T18:41:50;27.20;54.10
63371;DHT22;49504;48.336;14.472;2023-06-26T18:45:11;27.20;54.00
63371;DHT22;49504;48.336;14.472;2023-06-26T18:48:34;27.20;54.30
63371;DHT22;49504;48.336;14.472;2023-06-26T18:51:55;27.20;54.10
63371;DHT22;49504;48.336;14.472;2023-06-26T18:55:16;27.20;54.30
63371;DHT22;49504;48.336;14.472;2023-06-26T18:58:37;27.20;54.30
63371;DHT22;49504;48.336;14.472;2023-06-26T19:01:58;27.20;54.20
63371;DHT22;49504;48.336;14.472;2023-06-26T19:05:21;27.20;54.30
63371;DHT22;49504;48.336;14.472;2023-06-26T19:08:42;27.20;54.30
63371;DHT22;49504;48.336;14.472;2023-06-26T19:15:15;27.20;53.80
63371;DHT22;49504;48.336;14.472;2023-06-26T19:18:37;27.20;54.50
63371;DHT22;49504;48.336;14.472;2023-06-26T19:21:58;27.20;54.50
63371;DHT22;49504;48.336;14.472;2023-06-26T19:25:19;27.20;54.70
63371;DHT22;49504;48.336;14.472;2023-06-26T19:28:40;27.20;54.70
63371;DHT22;49504;48.336;14.472;2023-06-26T19:32:03;27.20;54.90
63371;DHT22;49504;48.336;14.472;2023-06-26T19:35:25;27.20;54.90
63371;DHT22;49504;48.336;14.472;2023-06-26T19:38:46;27.10;54.90
63371;DHT22;49504;48.336;14.472;2023-06-26T19:42:07;27.10;54.70
63371;DHT22;49504;48.336;14.472;2023-06-26T19:45:29;27.20;55.00
63371;DHT22;49504;48.336;14.472;2023-06-26T19:48:52;27.10;54.70
63371;DHT22;49504;48.336;14.472;2023-06-26T19:52:13;27.10;54.80
63371;DHT22;49504;48.336;14.472;2023-06-26T19:55:36;27.20;54.80
63371;DHT22;49504;48.336;14.472;2023-06-26T19:58:57;27.20;54.70
63371;DHT22;49504;48.336;14.472;2023-06-26T20:02:19;27.10;54.70
63371;DHT22;49504;48.336;14.472;2023-06-26T20:05:41;27.10;54.70
63371;DHT22;49504;48.336;14.472;2023-06-26T20:09:03;27.10;54.70
63371;DHT22;49504;48.336;14.472;2023-06-26T20:12:24;27.20;54.80
63371;DHT22;49504;48.336;14.472;2023-06-26T20:15:45;27.10;54.70
63371;DHT22;49504;48.336;14.472;2023-06-26T20:19:06;27.10;54.70
63371;DHT22;49504;48.336;14.472;2023-06-26T20:22:29;27.10;54.70
63371;DHT22;49504;48.336;14.472;2023-06-26T20:25:50;27.10;54.70
63371;DHT22;49504;48.336;14.472;2023-06-26T20:29:11;27.20;54.80
63371;DHT22;49504;48.336;14.472;2023-06-26T20:32:32;27.10;54.70
63371;DHT22;49504;48.336;14.472;2023-06-26T20:35:53;27.10;54.60
63371;DHT22;49504;48.336;14.472;2023-06-26T20:39:16;27.10;54.70
63371;DHT22;49504;48.336;14.472;2023-06-26T20:42:38;27.10;54.70
63371;DHT22;49504;48.336;14.472;2023-06-26T20:46:00;27.10;54.60
63371;DHT22;49504;48.336;14.472;2023-06-26T20:51:22;27.10;54.00
63371;DHT22;49504;48.336;14.472;2023-06-26T20:54:45;27.10;54.70
63371;DHT22;49504;48.336;14.472;2023-06-26T20:58:07;27.10;54.70
63371;DHT22;49504;48.336;14.472;2023-06-26T21:01:28;27.10;54.70
63371;DHT22;49504;48.336;14.472;2023-06-26T21:04:49;27.10;54.80
63371;DHT22;49504;48.336;14.472;2023-06-26T21:08:11;27.10;54.80
63371;DHT22;49504;48.336;14.472;2023-06-26T21:11:32;27.10;54.80
63371;DHT22;49504;48.336;14.472;2023-06-26T21:14:54;27.10;54.90
63371;DHT22;49504;48.336;14.472;2023-06-26T21:18:16;27.10;54.80